createdAt,value
2022-10-11T00:00:36.945Z,10.00
2022-10-11T00:03:03.807Z,9.90
2022-10-11T00:05:31.093Z,9.90
2022-10-11T00:07:58.385Z,9.90
2022-10-11T00:10:25.288Z,9.90
2022-10-11T00:12:54.900Z,9.80
2022-10-11T00:15:22.641Z,9.80
2022-10-11T00:18:01.044Z,9.80
2022-10-11T00:20:33.758Z,9.80
2022-10-11T00:23:00.612Z,9.80
2022-10-11T00:25:27.515Z,9.80
2022-10-11T00:27:54.697Z,9.70
2022-10-11T00:30:21.581Z,9.70
2022-10-11T00:32:50.407Z,9.70
2022-10-11T00:35:17.488Z,9.70
2022-10-11T00:37:44.255Z,9.60
2022-10-11T00:40:14.342Z,9.60
2022-10-11T00:42:41.140Z,9.70
2022-10-11T00:45:26.342Z,9.60
2022-10-11T00:47:54.807Z,9.60
2022-10-11T00:50:25.437Z,9.70
2022-10-11T00:52:59.757Z,9.60
2022-10-11T00:55:28.436Z,9.70
2022-10-11T00:57:55.745Z,9.60
2022-10-11T01:00:23.582Z,9.70
2022-10-11T01:02:50.751Z,9.60
2022-10-11T01:05:29.521Z,9.60
2022-10-11T01:07:58.737Z,9.60
2022-10-11T01:10:25.932Z,9.60
2022-10-11T01:13:06.831Z,9.60
2022-10-11T01:15:38.198Z,9.60
2022-10-11T01:18:13.271Z,9.60
2022-10-11T01:20:40.049Z,9.60
2022-10-11T01:23:09.847Z,9.60
2022-10-11T01:25:43.123Z,9.60
2022-10-11T01:28:26.226Z,9.60
2022-10-11T01:30:57.287Z,9.60
2022-10-11T01:33:30.367Z,9.60
2022-10-11T01:36:00.346Z,9.60
2022-10-11T01:38:53.464Z,9.60
2022-10-11T01:41:24.468Z,9.60
2022-10-11T01:43:56.985Z,9.60
2022-10-11T01:46:24.256Z,9.60
2022-10-11T01:48:52.638Z,9.60
2022-10-11T01:51:24.661Z,9.60
2022-10-11T01:54:17.926Z,9.50
2022-10-11T01:57:03.594Z,9.50
2022-10-11T01:59:37.199Z,9.50
2022-10-11T02:02:18.509Z,9.50
2022-10-11T02:05:07.118Z,9.40
2022-10-11T02:07:42.732Z,9.40
2022-10-11T02:10:17.636Z,9.40
2022-10-11T02:13:14.257Z,9.40
2022-10-11T02:15:42.165Z,9.40
2022-10-11T02:18:11.750Z,9.40
2022-10-11T02:20:39.629Z,9.40
2022-10-11T02:23:09.909Z,9.40
2022-10-11T02:25:37.245Z,9.40
2022-10-11T02:28:06.754Z,9.40
2022-10-11T02:30:34.187Z,9.40
2022-10-11T02:33:02.726Z,9.40
2022-10-11T02:35:30.467Z,9.50
2022-10-11T02:38:27.757Z,9.50
2022-10-11T02:41:03.343Z,9.40
2022-10-11T02:43:32.971Z,9.50
2022-10-11T02:46:00.649Z,9.50
2022-10-11T02:48:29.366Z,9.50
2022-10-11T02:51:03.461Z,9.40
2022-10-11T02:53:31.133Z,9.40
2022-10-11T02:55:58.020Z,9.40
2022-10-11T02:58:25.561Z,9.40
2022-10-11T03:00:52.498Z,9.40
2022-10-11T03:03:19.319Z,9.40
2022-10-11T03:05:46.093Z,9.40
2022-10-11T03:08:13.756Z,9.50
2022-10-11T03:10:40.856Z,9.40
2022-10-11T03:13:09.640Z,9.40
2022-10-11T03:15:36.444Z,9.40
2022-10-11T03:18:04.149Z,9.40
2022-10-11T03:20:31.323Z,9.30
2022-10-11T03:22:58.129Z,9.30
2022-10-11T03:25:24.858Z,9.30
2022-10-11T03:27:51.673Z,9.30
2022-10-11T03:30:20.764Z,9.30
2022-10-11T03:32:47.920Z,9.30
2022-10-11T03:35:14.816Z,9.30
2022-10-11T03:37:41.738Z,9.30
2022-10-11T03:40:09.698Z,9.30
2022-10-11T03:42:36.966Z,9.30
2022-10-11T03:45:08.005Z,9.30
2022-10-11T03:47:35.313Z,9.30
2022-10-11T03:50:02.283Z,9.20
2022-10-11T03:52:29.083Z,9.20
2022-10-11T03:54:56.167Z,9.20
2022-10-11T03:57:23.401Z,9.20
2022-10-11T03:59:50.271Z,9.10
2022-10-11T04:02:17.100Z,9.10
2022-10-11T04:04:43.851Z,9.10
2022-10-11T04:07:10.701Z,9.10
2022-10-11T04:09:37.674Z,9.10
2022-10-11T04:12:05.535Z,9.10
2022-10-11T04:14:32.359Z,9.10
2022-10-11T04:17:00.489Z,9.10
2022-10-11T04:19:27.713Z,9.10
2022-10-11T04:21:58.631Z,9.10
2022-10-11T04:24:25.367Z,9.10
2022-10-11T04:26:52.256Z,9.10
2022-10-11T04:29:19.038Z,9.10
2022-10-11T04:31:45.835Z,9.10
2022-10-11T04:34:12.667Z,9.10
2022-10-11T04:36:39.627Z,9.10
2022-10-11T04:39:07.360Z,9.10
2022-10-11T04:41:34.373Z,9.00
2022-10-11T04:44:01.888Z,9.00
2022-10-11T04:46:28.614Z,9.00
2022-10-11T04:48:55.603Z,9.00
2022-10-11T04:51:22.704Z,9.00
2022-10-11T04:53:49.746Z,9.00
2022-10-11T04:56:18.447Z,9.00
2022-10-11T04:58:48.130Z,8.90
2022-10-11T05:01:15.520Z,8.90
2022-10-11T05:03:42.304Z,8.90
2022-10-11T05:06:09.516Z,8.90
2022-10-11T05:08:37.180Z,8.90
2022-10-11T05:11:05.213Z,8.80
2022-10-11T05:13:33.008Z,8.80
2022-10-11T05:15:59.713Z,8.80
2022-10-11T05:18:27.232Z,8.70
2022-10-11T05:21:00.191Z,8.70
2022-10-11T05:23:28.000Z,8.70
2022-10-11T05:25:54.755Z,8.70
2022-10-11T05:28:21.597Z,8.70
2022-10-11T05:30:48.559Z,8.70
2022-10-11T05:33:15.388Z,8.60
2022-10-11T05:35:42.162Z,8.70
2022-10-11T05:38:08.908Z,8.70
2022-10-11T05:40:36.855Z,8.60
2022-10-11T05:43:04.049Z,8.60
2022-10-11T05:45:32.888Z,8.60
2022-10-11T05:47:59.647Z,8.60
2022-10-11T05:50:26.518Z,8.60
2022-10-11T05:52:53.370Z,8.60
2022-10-11T05:55:20.152Z,8.60
2022-10-11T05:57:46.918Z,8.60
2022-10-11T06:00:13.838Z,8.60
2022-10-11T06:02:40.654Z,8.70
2022-10-11T06:05:07.495Z,8.70
2022-10-11T06:07:35.845Z,8.70
2022-10-11T06:10:03.426Z,8.70
2022-10-11T06:12:31.116Z,8.70
2022-10-11T06:14:57.985Z,8.80
2022-10-11T06:17:24.951Z,8.80
2022-10-11T06:19:51.718Z,8.80
2022-10-11T06:22:18.787Z,8.80
2022-10-11T06:24:45.495Z,8.80
2022-10-11T06:27:15.230Z,8.80
2022-10-11T06:29:42.428Z,8.80
2022-10-11T06:32:09.159Z,8.80
2022-10-11T06:34:36.134Z,8.80
2022-10-11T06:37:02.843Z,8.80
2022-10-11T06:39:29.613Z,8.80
2022-10-11T06:41:56.580Z,8.80
2022-10-11T06:44:23.385Z,8.80
2022-10-11T06:46:53.677Z,8.80
2022-10-11T06:49:23.305Z,8.80
2022-10-11T06:51:53.784Z,8.90
2022-10-11T06:54:20.635Z,8.80
2022-10-11T06:56:47.632Z,8.90
2022-10-11T06:59:15.203Z,8.90
2022-10-11T07:01:42.454Z,8.90
2022-10-11T07:04:09.313Z,8.90
2022-10-11T07:06:37.693Z,8.90
2022-10-11T07:09:04.744Z,9.00
2022-10-11T07:11:31.499Z,9.00
2022-10-11T07:13:59.850Z,9.00
2022-10-11T07:16:26.814Z,9.00
2022-10-11T07:18:59.851Z,9.00
2022-10-11T07:21:27.625Z,9.10
2022-10-11T07:23:54.448Z,9.10
2022-10-11T07:26:21.326Z,9.10
2022-10-11T07:28:48.800Z,9.10
2022-10-11T07:31:17.777Z,9.10
2022-10-11T07:33:44.753Z,9.10
2022-10-11T07:36:12.194Z,9.20
2022-10-11T07:38:39.960Z,9.20
2022-10-11T07:41:07.154Z,9.20
2022-10-11T07:43:33.997Z,9.20
2022-10-11T07:46:04.824Z,9.20
2022-10-11T07:48:33.064Z,9.30
2022-10-11T07:51:26.364Z,9.30
2022-10-11T07:53:55.436Z,9.30
2022-10-11T07:56:26.685Z,9.40
2022-10-11T07:58:54.809Z,9.40
2022-10-11T08:01:21.796Z,9.40
2022-10-11T08:03:49.395Z,9.50
2022-10-11T08:06:17.795Z,9.40
2022-10-11T08:08:45.165Z,9.50
2022-10-11T08:11:19.343Z,9.50
2022-10-11T08:13:46.208Z,9.60
2022-10-11T08:16:13.453Z,9.60
2022-10-11T08:18:40.220Z,9.70
2022-10-11T08:21:11.060Z,9.70
2022-10-11T08:23:38.084Z,9.80
2022-10-11T08:26:05.776Z,9.80
2022-10-11T08:28:32.910Z,9.80
2022-10-11T08:30:59.753Z,9.90
2022-10-11T08:33:26.742Z,9.90
2022-10-11T08:35:54.151Z,9.90
2022-10-11T08:38:21.354Z,10.00
2022-10-11T08:40:50.614Z,10.00
2022-10-11T08:43:37.779Z,10.00
2022-10-11T08:46:06.406Z,10.10
2022-10-11T08:48:33.361Z,10.10
2022-10-11T08:51:01.069Z,10.10
2022-10-11T08:53:39.985Z,10.10
2022-10-11T08:56:07.152Z,10.20
2022-10-11T08:58:44.971Z,10.30
2022-10-11T09:01:22.693Z,10.30
2022-10-11T09:03:50.939Z,10.30
2022-10-11T09:06:23.761Z,10.40
2022-10-11T09:09:17.065Z,10.40
2022-10-11T09:11:47.375Z,10.50
2022-10-11T09:14:33.050Z,10.50
2022-10-11T09:17:02.864Z,10.60
2022-10-11T09:19:32.693Z,10.60
2022-10-11T09:22:16.238Z,10.60
2022-10-11T09:24:50.401Z,10.70
2022-10-11T09:27:17.232Z,10.70
2022-10-11T09:30:02.998Z,10.70
2022-10-11T09:32:39.649Z,10.70
2022-10-11T09:35:14.094Z,10.80
2022-10-11T09:37:45.004Z,10.80
2022-10-11T09:40:24.031Z,10.90
2022-10-11T09:42:50.902Z,11.00
2022-10-11T09:45:19.299Z,11.10
2022-10-11T09:47:46.528Z,11.20
2022-10-11T09:50:16.572Z,11.20
2022-10-11T09:52:50.501Z,11.30
2022-10-11T09:55:36.141Z,11.40
2022-10-11T09:58:04.801Z,11.50
2022-10-11T10:00:34.550Z,11.70
2022-10-11T10:03:03.030Z,11.70
2022-10-11T10:05:33.996Z,11.80
2022-10-11T10:08:04.980Z,11.90
2022-10-11T10:10:41.135Z,11.90
2022-10-11T10:13:20.177Z,12.00
2022-10-11T10:15:48.335Z,12.10
2022-10-11T10:18:20.380Z,12.10
2022-10-11T10:20:51.243Z,12.20
2022-10-11T10:23:26.395Z,12.30
2022-10-11T10:26:09.527Z,12.30
2022-10-11T10:28:36.553Z,12.40
2022-10-11T10:31:03.405Z,12.40
2022-10-11T10:33:32.758Z,12.50
2022-10-11T10:36:03.301Z,12.50
2022-10-11T10:38:33.532Z,12.60
2022-10-11T10:41:05.933Z,12.60
2022-10-11T10:43:39.729Z,12.70
2022-10-11T10:46:06.811Z,12.70
2022-10-11T10:49:28.410Z,12.80
2022-10-11T10:51:47.066Z,12.80
2022-10-11T10:54:23.180Z,12.90
2022-10-11T10:56:52.495Z,12.90
2022-10-11T10:59:19.224Z,13.00
2022-10-11T11:02:28.201Z,13.00
2022-10-11T11:05:11.872Z,13.00
2022-10-11T11:07:45.893Z,13.10
2022-10-11T11:10:15.740Z,13.10
2022-10-11T11:12:50.407Z,13.10
2022-10-11T11:15:31.278Z,13.20
2022-10-11T11:18:26.096Z,13.20
2022-10-11T11:20:59.907Z,13.20
2022-10-11T11:23:51.407Z,13.30
2022-10-11T11:26:44.422Z,13.30
2022-10-11T11:29:18.191Z,13.40
2022-10-11T11:31:45.990Z,13.40
2022-10-11T11:34:12.787Z,13.40
2022-10-11T11:36:49.182Z,13.40
2022-10-11T11:39:18.130Z,13.40
2022-10-11T11:41:57.828Z,13.40
2022-10-11T11:44:28.552Z,13.50
2022-10-11T11:46:59.277Z,13.50
2022-10-11T11:49:34.234Z,13.50
2022-10-11T11:52:01.567Z,13.50
2022-10-11T11:54:36.506Z,13.50
2022-10-11T11:57:18.342Z,13.50
2022-10-11T11:59:54.425Z,13.50
2022-10-11T12:02:22.210Z,13.50
2022-10-11T12:05:14.712Z,13.50
2022-10-11T12:08:04.934Z,13.50
2022-10-11T12:10:50.227Z,13.50
2022-10-11T12:13:17.812Z,13.50
2022-10-11T12:16:13.801Z,13.50
2022-10-11T12:18:52.980Z,13.50
2022-10-11T12:21:31.256Z,13.50
2022-10-11T12:24:00.063Z,13.50
2022-10-11T12:26:36.066Z,13.50
2022-10-11T12:29:28.959Z,13.50
2022-10-11T12:31:56.066Z,13.60
2022-10-11T12:34:22.877Z,13.60
2022-10-11T12:36:58.102Z,13.60
2022-10-11T12:39:24.738Z,13.60
2022-10-11T12:41:55.491Z,13.60
2022-10-11T12:44:28.979Z,13.60
2022-10-11T12:46:56.329Z,13.50
2022-10-11T12:49:29.247Z,13.50
2022-10-11T12:52:01.336Z,13.50
2022-10-11T12:54:37.587Z,13.50
2022-10-11T12:57:19.972Z,13.50
2022-10-11T12:59:46.862Z,13.50
2022-10-11T13:02:23.752Z,13.50
2022-10-11T13:04:50.577Z,13.50
2022-10-11T13:07:23.548Z,13.50
2022-10-11T13:09:53.565Z,13.50
2022-10-11T13:12:23.247Z,13.50
2022-10-11T13:14:58.970Z,13.50
2022-10-11T13:17:32.257Z,13.50
2022-10-11T13:20:05.680Z,13.50
2022-10-11T13:22:34.741Z,13.50
2022-10-11T13:25:04.663Z,13.50
2022-10-11T13:27:43.498Z,13.50
2022-10-11T13:30:24.187Z,13.50
2022-10-11T13:32:51.557Z,13.50
2022-10-11T13:35:23.919Z,13.50
2022-10-11T13:37:55.246Z,13.60
2022-10-11T13:40:22.313Z,13.60
2022-10-11T13:42:50.210Z,13.70
2022-10-11T13:45:21.131Z,13.70
2022-10-11T13:47:48.385Z,13.80
2022-10-11T13:50:15.450Z,13.80
2022-10-11T13:52:56.506Z,13.90
2022-10-11T13:55:23.313Z,13.90
2022-10-11T13:57:52.286Z,14.00
2022-10-11T14:00:37.668Z,14.00
2022-10-11T14:03:13.593Z,14.00
2022-10-11T14:05:42.270Z,14.00
2022-10-11T14:08:28.291Z,14.00
2022-10-11T14:10:57.891Z,14.00
2022-10-11T14:13:26.211Z,14.00
2022-10-11T14:16:00.349Z,13.90
2022-10-11T14:18:33.700Z,13.90
2022-10-11T14:21:18.815Z,13.90
2022-10-11T14:23:46.581Z,13.90
2022-10-11T14:26:18.492Z,13.90
2022-10-11T14:28:46.218Z,13.80
2022-10-11T14:31:13.160Z,13.80
2022-10-11T14:33:39.934Z,13.80
2022-10-11T14:36:07.121Z,13.80
2022-10-11T14:38:34.180Z,13.80
2022-10-11T14:41:01.023Z,13.70
2022-10-11T14:43:27.786Z,13.80
2022-10-11T14:45:55.628Z,13.80
2022-10-11T14:48:43.038Z,13.80
2022-10-11T14:51:11.910Z,13.80
2022-10-11T14:53:42.079Z,13.80
2022-10-11T14:56:09.170Z,13.90
2022-10-11T14:58:36.003Z,13.90
2022-10-11T15:01:02.924Z,13.90
2022-10-11T15:03:29.892Z,13.90
2022-10-11T15:05:56.825Z,13.90
2022-10-11T15:08:23.726Z,13.90
2022-10-11T15:10:50.853Z,13.90
2022-10-11T15:13:17.757Z,13.90
2022-10-11T15:15:45.350Z,13.90
2022-10-11T15:18:13.427Z,13.90
2022-10-11T15:20:42.343Z,13.90
2022-10-11T15:23:10.384Z,13.90
2022-10-11T15:25:37.848Z,13.90
2022-10-11T15:28:05.253Z,13.90
2022-10-11T15:30:38.443Z,13.80
2022-10-11T15:33:08.384Z,13.80
2022-10-11T15:35:35.202Z,13.80
2022-10-11T15:38:02.133Z,13.80
2022-10-11T15:40:33.607Z,13.70
2022-10-11T15:43:00.663Z,13.70
2022-10-11T15:45:27.757Z,13.70
2022-10-11T15:47:54.978Z,13.70
2022-10-11T15:50:33.730Z,13.70
2022-10-11T15:53:02.860Z,13.70
2022-10-11T15:55:31.178Z,13.70
2022-10-11T15:57:59.024Z,13.70
2022-10-11T16:00:26.171Z,13.70
2022-10-11T16:02:53.212Z,13.70
2022-10-11T16:05:20.744Z,13.70
2022-10-11T16:07:48.599Z,13.70
2022-10-11T16:10:16.825Z,13.70
2022-10-11T16:12:43.665Z,13.60
2022-10-11T16:15:10.618Z,13.60
2022-10-11T16:17:37.544Z,13.60
2022-10-11T16:20:06.849Z,13.60
2022-10-11T16:22:35.159Z,13.60
2022-10-11T16:25:02.482Z,13.60
2022-10-11T16:27:29.567Z,13.50
2022-10-11T16:29:56.322Z,13.50
2022-10-11T16:32:24.254Z,13.50
2022-10-11T16:34:51.282Z,13.50
2022-10-11T16:37:18.143Z,13.50
2022-10-11T16:39:44.969Z,13.50
2022-10-11T16:42:11.822Z,13.50
2022-10-11T16:44:39.317Z,13.50
2022-10-11T16:47:08.301Z,13.50
2022-10-11T16:49:36.413Z,13.40
2022-10-11T16:52:06.729Z,13.50
2022-10-11T16:54:36.114Z,13.40
2022-10-11T16:57:03.322Z,13.40
2022-10-11T16:59:31.226Z,13.40
2022-10-11T17:01:58.095Z,13.40
2022-10-11T17:04:25.120Z,13.40
2022-10-11T17:06:54.196Z,13.40
2022-10-11T17:09:21.143Z,13.40
2022-10-11T17:12:23.427Z,13.30
2022-10-11T17:15:00.952Z,13.30
2022-10-11T17:17:28.083Z,13.30
2022-10-11T17:19:55.005Z,13.30
2022-10-11T17:22:25.991Z,13.30
2022-10-11T17:24:55.932Z,13.20
2022-10-11T17:27:22.763Z,13.30
2022-10-11T17:29:52.160Z,13.20
2022-10-11T17:32:19.177Z,13.20
2022-10-11T17:34:54.335Z,13.20
2022-10-11T17:37:21.227Z,13.20
2022-10-11T17:39:55.754Z,13.20
2022-10-11T17:42:25.938Z,13.20
2022-10-11T17:44:52.756Z,13.20
2022-10-11T17:47:21.880Z,13.20
2022-10-11T17:49:48.808Z,13.10
2022-10-11T17:52:19.272Z,13.10
2022-10-11T17:54:47.078Z,13.10
2022-10-11T17:57:14.845Z,13.10
2022-10-11T17:59:42.755Z,13.10
2022-10-11T18:02:13.566Z,13.10
2022-10-11T18:04:41.598Z,13.10
2022-10-11T18:07:09.360Z,13.00
2022-10-11T18:09:36.838Z,13.00
2022-10-11T18:12:06.398Z,13.00
2022-10-11T18:14:33.314Z,13.00
2022-10-11T18:17:02.101Z,13.00
2022-10-11T18:19:29.190Z,13.00
2022-10-11T18:21:56.058Z,12.90
2022-10-11T18:24:22.961Z,12.90
2022-10-11T18:26:51.030Z,12.90
2022-10-11T18:29:17.931Z,12.90
2022-10-11T18:31:44.703Z,12.90
2022-10-11T18:34:13.023Z,12.90
2022-10-11T18:36:40.070Z,12.90
2022-10-11T18:39:07.766Z,12.90
2022-10-11T18:41:35.524Z,12.80
2022-10-11T18:44:03.812Z,12.80
2022-10-11T18:46:30.739Z,12.80
2022-10-11T18:48:58.319Z,12.70
2022-10-11T18:51:26.662Z,12.60
2022-10-11T18:53:53.958Z,12.50
2022-10-11T18:56:22.154Z,12.50
2022-10-11T18:58:50.317Z,12.40
2022-10-11T19:01:18.768Z,12.30
2022-10-11T19:03:47.241Z,12.30
2022-10-11T19:06:18.135Z,12.20
2022-10-11T19:08:50.594Z,12.20
2022-10-11T19:11:22.064Z,12.10
2022-10-11T19:13:55.398Z,12.10
2022-10-11T19:16:22.627Z,12.00
2022-10-11T19:18:50.380Z,12.00
2022-10-11T19:21:17.563Z,11.90
2022-10-11T19:23:45.207Z,11.90
2022-10-11T19:26:15.115Z,11.90
2022-10-11T19:28:42.290Z,11.90
2022-10-11T19:31:11.514Z,11.80
2022-10-11T19:33:38.305Z,11.80
2022-10-11T19:36:06.678Z,11.70
2022-10-11T19:38:34.710Z,11.60
2022-10-11T19:41:01.784Z,11.50
2022-10-11T19:43:28.548Z,11.50
2022-10-11T19:46:02.654Z,11.40
2022-10-11T19:48:30.226Z,11.40
2022-10-11T19:51:07.350Z,11.30
2022-10-11T19:53:34.737Z,11.30
2022-10-11T19:56:02.467Z,11.20
2022-10-11T19:58:29.452Z,11.20
2022-10-11T20:01:03.890Z,11.10
2022-10-11T20:03:31.341Z,11.10
2022-10-11T20:06:02.053Z,11.10
2022-10-11T20:08:33.039Z,11.00
2022-10-11T20:11:00.363Z,11.00
2022-10-11T20:13:31.187Z,11.00
2022-10-11T20:16:02.498Z,10.90
2022-10-11T20:18:29.480Z,10.90
2022-10-11T20:20:57.318Z,10.90
2022-10-11T20:23:27.568Z,10.80
2022-10-11T20:26:01.865Z,10.80
2022-10-11T20:28:29.433Z,10.70
2022-10-11T20:30:56.534Z,10.70
2022-10-11T20:33:23.486Z,10.60
2022-10-11T20:36:00.386Z,10.60
2022-10-11T20:38:27.710Z,10.50
2022-10-11T20:40:54.459Z,10.50
2022-10-11T20:43:21.513Z,10.50
2022-10-11T20:45:58.766Z,10.40
2022-10-11T20:48:26.111Z,10.40
2022-10-11T20:50:52.984Z,10.40
2022-10-11T20:53:19.712Z,10.30
2022-10-11T20:55:46.573Z,10.30
2022-10-11T20:58:13.277Z,10.30
2022-10-11T21:00:40.270Z,10.30
2022-10-11T21:03:07.175Z,10.30
2022-10-11T21:05:34.237Z,10.20
2022-10-11T21:08:03.549Z,10.20
2022-10-11T21:10:30.971Z,10.20
2022-10-11T21:13:06.268Z,10.10
2022-10-11T21:15:33.275Z,10.10
2022-10-11T21:18:00.185Z,10.00
2022-10-11T21:20:27.034Z,10.00
2022-10-11T21:22:54.120Z,10.00
2022-10-11T21:25:22.676Z,10.00
2022-10-11T21:27:49.453Z,10.10
2022-10-11T21:30:16.364Z,10.00
2022-10-11T21:32:43.092Z,10.00
2022-10-11T21:35:09.831Z,10.00
2022-10-11T21:37:36.994Z,9.90
2022-10-11T21:40:04.068Z,9.90
2022-10-11T21:42:30.783Z,9.90
2022-10-11T21:44:58.446Z,9.80
2022-10-11T21:47:25.334Z,9.80
2022-10-11T21:49:52.194Z,9.80
2022-10-11T21:52:19.006Z,9.80
2022-10-11T21:54:47.306Z,9.80
2022-10-11T21:57:14.413Z,9.80
2022-10-11T21:59:41.314Z,9.70
2022-10-11T22:02:09.051Z,9.70
2022-10-11T22:04:35.970Z,9.60
2022-10-11T22:07:02.841Z,9.50
2022-10-11T22:09:29.975Z,9.50
2022-10-11T22:11:56.981Z,9.50
2022-10-11T22:14:24.139Z,9.40
2022-10-11T22:16:50.993Z,9.30
2022-10-11T22:19:17.703Z,9.30
2022-10-11T22:21:45.451Z,9.40
2022-10-11T22:24:13.023Z,9.30
2022-10-11T22:26:40.107Z,9.40
2022-10-11T22:29:08.472Z,9.30
2022-10-11T22:31:35.619Z,9.30
2022-10-11T22:34:02.698Z,9.30
2022-10-11T22:36:30.682Z,9.30
2022-10-11T22:39:21.841Z,9.20
2022-10-11T22:41:53.805Z,9.20
2022-10-11T22:44:20.997Z,9.10
2022-10-11T22:46:47.996Z,9.10
2022-10-11T22:49:14.753Z,9.10
2022-10-11T22:51:41.563Z,9.00
2022-10-11T22:54:08.484Z,9.00
2022-10-11T22:56:35.464Z,9.00
2022-10-11T22:59:02.646Z,9.00
2022-10-11T23:01:33.540Z,9.00
2022-10-11T23:04:00.435Z,9.00
2022-10-11T23:06:28.734Z,8.90
2022-10-11T23:08:55.902Z,8.90
2022-10-11T23:11:22.846Z,8.90
2022-10-11T23:13:49.627Z,8.80
2022-10-11T23:16:16.495Z,8.80
2022-10-11T23:18:43.533Z,8.80
2022-10-11T23:21:10.354Z,8.80
2022-10-11T23:23:39.247Z,8.80
2022-10-11T23:26:07.896Z,8.70
2022-10-11T23:28:35.184Z,8.70
2022-10-11T23:31:06.299Z,8.70
2022-10-11T23:33:33.189Z,8.80
2022-10-11T23:36:01.744Z,8.80
2022-10-11T23:38:28.899Z,8.70
2022-10-11T23:40:55.804Z,8.70
2022-10-11T23:43:22.923Z,8.70
2022-10-11T23:45:49.914Z,8.70
2022-10-11T23:48:16.781Z,8.70
2022-10-11T23:50:58.657Z,8.60
2022-10-11T23:53:25.505Z,8.70
2022-10-11T23:55:52.300Z,8.70
2022-10-11T23:59:06.436Z,8.70
